Time;durP1;ratioP1;P1;durP2;ratioP2;P2;SDS_P1;SDS_P2;PMS_P1;PMS_P2;Temp;Humidity;BMP_temperature;BMP_pressure;BME280_temperature;BME280_humidity;BME280_pressure;Samples;Min_cycle;Max_cycle;Signal;HPM_P1;HPM_P2
2021/12/01 00:00:36;;;;;;;25.42;7.20;;;;;;;0.19;100.00;99754.72;5068505;28;20563;-79
2021/12/01 00:03:02;;;;;;;25.63;7.43;;;;;;;0.09;100.00;99719.63;5068175;28;20040;-79
2021/12/01 00:05:30;;;;;;;25.65;6.55;;;;;;;0.29;100.00;99746.97;5069060;28;20032;-78
2021/12/01 00:07:57;;;;;;;17.23;4.88;;;;;;;0.25;100.00;99720.09;5068163;28;20153;-78
2021/12/01 00:10:24;;;;;;;18.83;3.78;;;;;;;0.25;100.00;99712.22;5068274;28;20039;-79
2021/12/01 00:12:50;;;;;;;13.60;3.55;;;;;;;0.27;100.00;99706.84;5050272;28;20424;-79
2021/12/01 00:15:16;;;;;;;16.13;3.47;;;;;;;0.26;100.00;99698.16;5067885;28;20029;-78
2021/12/01 00:17:42;;;;;;;24.27;5.20;;;;;;;0.25;100.00;99699.09;5069062;28;20564;-79
2021/12/01 00:20:10;;;;;;;24.73;3.50;;;;;;;0.33;100.00;99709.84;5068899;28;20089;-78
2021/12/01 00:22:36;;;;;;;14.65;4.20;;;;;;;0.37;100.00;99710.41;5068283;28;20476;-79
2021/12/01 00:25:03;;;;;;;16.15;3.65;;;;;;;0.39;100.00;99711.94;5067735;28;20040;-79
2021/12/01 00:27:29;;;;;;;20.38;4.00;;;;;;;0.30;100.00;99689.06;5051448;28;20040;-79
2021/12/01 00:29:56;;;;;;;20.03;4.93;;;;;;;0.43;100.00;99704.69;5067858;28;20040;-79
2021/12/01 00:32:22;;;;;;;19.98;3.40;;;;;;;0.40;100.00;99697.06;5068801;28;20097;-78
2021/12/01 00:34:48;;;;;;;17.20;2.88;;;;;;;0.39;100.00;99695.38;5067721;28;20033;-78
2021/12/01 00:37:13;;;;;;;13.20;3.55;;;;;;;0.44;100.00;99692.38;5051135;28;20032;-79
2021/12/01 00:39:39;;;;;;;18.13;4.38;;;;;;;0.37;100.00;99671.84;5051232;28;20041;-78
2021/12/01 00:42:06;;;;;;;28.67;4.90;;;;;;;0.44;100.00;99687.94;5067984;28;20024;-78
2021/12/01 00:44:34;;;;;;;21.48;5.53;;;;;;;0.48;100.00;99685.94;5067517;28;20330;-79
2021/12/01 00:49:30;;;;;;;28.15;4.60;;;;;;;0.48;100.00;99681.50;5068457;28;20031;-78
2021/12/01 00:51:55;;;;;;;12.15;3.97;;;;;;;0.53;100.00;99686.38;5067739;28;20214;-78
2021/12/01 00:54:21;;;;;;;15.13;5.05;;;;;;;0.51;100.00;99678.63;5069372;28;20127;-78
2021/12/01 00:56:49;;;;;;;10.95;2.83;;;;;;;0.63;100.00;99687.28;5068254;28;20163;-78
2021/12/01 00:59:16;;;;;;;13.93;4.43;;;;;;;0.73;100.00;99685.59;5072111;28;20040;-78
2021/12/01 01:01:42;;;;;;;21.20;3.33;;;;;;;0.86;100.00;99687.22;5071582;28;20480;-79
2021/12/01 01:04:07;;;;;;;19.58;5.50;;;;;;;0.89;100.00;99674.69;5072255;28;20036;-79
2021/12/01 01:06:33;;;;;;;16.83;3.40;;;;;;;0.81;100.00;99646.38;5071539;28;20044;-78
2021/12/01 01:09:00;;;;;;;19.30;3.70;;;;;;;0.86;100.00;99634.66;5071578;28;20127;-79
2021/12/01 01:16:58;;;;;;;16.95;4.50;;;;;;;0.83;100.00;99612.09;5071477;28;20375;-78
2021/12/01 01:19:25;;;;;;;19.83;4.97;;;;;;;0.82;100.00;99608.66;5072200;28;20040;-78
2021/12/01 01:21:52;;;;;;;18.63;3.00;;;;;;;0.89;100.00;99608.13;5071227;28;20098;-78
2021/12/01 01:24:19;;;;;;;31.20;4.03;;;;;;;0.97;100.00;99609.16;5070910;28;20047;-79
2021/12/01 01:26:45;;;;;;;15.38;3.30;;;;;;;1.04;100.00;99612.09;5054630;28;20098;-79
2021/12/01 01:29:11;;;;;;;18.88;3.65;;;;;;;1.03;100.00;99598.13;5072138;28;20028;-79
2021/12/01 01:31:37;;;;;;;20.05;4.28;;;;;;;1.07;100.00;99590.81;5071204;28;20470;-79
2021/12/01 01:34:03;;;;;;;;;;;;;;;1.16;100.00;99592.66;5071297;28;20047;-79
2021/12/01 01:36:28;;;;;;;31.05;5.05;;;;;;;1.19;100.00;99587.13;5071259;28;19912;-79
2021/12/01 01:38:56;;;;;;;19.60;3.60;;;;;;;1.20;100.00;99564.31;5072156;28;20059;-78
2021/12/01 01:41:21;;;;;;;21.42;3.78;;;;;;;1.15;100.00;99545.47;5070930;28;20462;-78
2021/12/01 01:43:50;;;;;;;14.75;3.92;;;;;;;1.20;100.00;99538.84;5070735;28;20074;-78
2021/12/01 01:46:16;;;;;;;23.20;4.93;;;;;;;1.29;100.00;99557.41;5070978;28;20036;-78
2021/12/01 01:48:48;;;;;;;19.25;3.58;;;;;;;1.30;100.00;99549.41;5070745;28;20369;-78
2021/12/01 01:51:15;;;;;;;16.80;4.28;;;;;;;1.37;100.00;99552.34;5071607;28;20442;-78
2021/12/01 01:53:41;;;;;;;24.38;5.00;;;;;;;1.33;100.00;99535.97;5071016;28;20036;-78
2021/12/01 01:56:07;;;;;;;;;;;;;;;1.33;100.00;99529.91;5054405;28;20097;-78
2021/12/01 01:58:33;;;;;;;10.48;4.47;;;;;;;1.27;100.00;99526.84;5071279;28;19912;-78
2021/12/01 02:01:08;;;;;;;28.23;5.47;;;;;;;1.37;100.00;99542.66;5070297;28;20032;-78
2021/12/01 02:03:44;;;;;;;20.27;4.22;;;;;;;1.37;100.00;99531.31;5070197;28;20041;-78
2021/12/01 02:06:11;;;;;;;20.15;5.15;;;;;;;1.39;100.00;99534.63;5070200;28;20040;-78
2021/12/01 02:08:40;;;;;;;27.40;4.72;;;;;;;1.47;100.00;99534.78;5070397;28;20584;-78
2021/12/01 02:11:10;;;;;;;17.63;4.88;;;;;;;1.51;100.00;99533.56;5069813;28;20028;-78
2021/12/01 02:13:37;;;;;;;17.90;4.63;;;;;;;1.53;100.00;99531.63;5070051;28;20047;-78
2021/12/01 02:16:03;;;;;;;24.23;4.35;;;;;;;1.59;100.00;99525.00;5070068;28;20036;-78
2021/12/01 02:18:29;;;;;;;16.63;3.80;;;;;;;1.64;100.00;99526.25;5070581;28;20247;-77
2021/12/01 02:21:15;;;;;;;19.38;3.83;;;;;;;1.68;100.00;99518.91;5070128;28;20549;-77
2021/12/01 02:23:48;;;;;;;17.50;3.58;;;;;;;1.72;100.00;99527.38;5069115;28;20039;-77
2021/12/01 02:26:15;;;;;;;29.33;4.50;;;;;;;1.65;100.00;99498.16;5070818;28;20024;-77
2021/12/01 02:28:44;;;;;;;27.42;4.72;;;;;;;1.71;100.00;99518.66;5069776;28;20033;-79
2021/12/01 02:31:10;;;;;;;26.10;4.95;;;;;;;1.55;100.00;99492.06;5071780;28;20032;-83
2021/12/01 02:33:36;;;;;;;32.45;7.30;;;;;;;1.52;100.00;99487.88;5053859;28;20071;-80
2021/12/01 02:36:02;;;;;;;33.55;5.18;;;;;;;1.54;100.00;99500.88;5070018;28;20072;-78
2021/12/01 02:38:28;;;;;;;14.10;4.93;;;;;;;1.54;100.00;99501.72;5069390;28;20025;-79
2021/12/01 02:40:54;;;;;;;21.48;6.20;;;;;;;1.48;100.00;99495.22;5070384;28;20427;-77
2021/12/01 02:43:24;;;;;;;20.98;4.82;;;;;;;1.58;100.00;99513.63;5052764;28;20033;-78
2021/12/01 02:45:54;;;;;;;22.00;5.18;;;;;;;1.54;100.00;99500.88;5069035;28;20051;-77
2021/12/01 02:48:21;;;;;;;31.55;7.63;;;;;;;1.53;100.00;99493.97;5068177;28;20024;-77
2021/12/01 02:50:48;;;;;;;22.00;4.85;;;;;;;1.57;100.00;99490.94;5070595;28;20044;-77
2021/12/01 02:53:14;;;;;;;18.13;5.03;;;;;;;1.48;100.00;99481.22;5071256;28;20033;-77
2021/12/01 02:55:50;;;;;;;;;;;;;;;1.47;100.00;99474.28;5053974;28;20072;-77
2021/12/01 02:58:17;;;;;;;20.90;4.20;;;;;;;1.50;100.00;99467.94;5071249;28;19997;-77
2021/12/01 03:00:43;;;;;;;27.10;5.65;;;;;;;1.48;100.00;99466.28;5070228;28;20037;-77
2021/12/01 03:03:10;;;;;;;;;;;;;;;1.55;100.00;99466.56;5071647;28;20036;-77
2021/12/01 03:05:36;;;;;;;17.52;5.38;;;;;;;1.51;100.00;99459.91;5069764;28;20018;-77
2021/12/01 03:08:02;;;;;;;26.20;5.72;;;;;;;1.46;100.00;99455.06;5070306;28;20107;-77
2021/12/01 03:10:27;;;;;;;28.13;5.95;;;;;;;1.42;100.00;99451.03;5071145;28;20051;-77
2021/12/01 03:12:53;;;;;;;28.20;4.57;;;;;;;1.43;100.00;99452.69;5071063;28;20102;-76
2021/12/01 03:15:19;;;;;;;18.33;5.40;;;;;;;1.51;100.00;99454.66;5069697;28;20032;-76
2021/12/01 03:17:45;;;;;;;31.42;6.55;;;;;;;1.54;100.00;99461.44;5070178;28;20115;-76
2021/12/01 03:20:12;;;;;;;27.92;5.18;;;;;;;1.56;100.00;99452.44;5069116;28;20147;-77
2021/12/01 03:22:37;;;;;;;22.35;5.53;;;;;;;1.68;100.00;99482.91;5070396;28;20369;-76
2021/12/01 03:25:14;;;;;;;32.43;7.53;;;;;;;1.62;100.00;99465.06;5070477;28;20024;-76
2021/12/01 03:27:40;;;;;;;23.80;7.97;;;;;;;1.65;100.00;99477.94;5069787;28;20295;-76
2021/12/01 03:30:07;;;;;;;;;;;;;;;1.62;100.00;99478.22;5070017;28;20032;-76
2021/12/01 03:32:33;;;;;;;29.67;7.40;;;;;;;1.65;100.00;99474.47;5069728;28;19923;-76
2021/12/01 03:34:59;;;;;;;27.15;6.88;;;;;;;1.65;100.00;99475.28;5086381;28;20107;-76
2021/12/01 03:37:25;;;;;;;25.83;7.75;;;;;;;1.64;100.00;99497.31;5069611;28;20040;-76
2021/12/01 03:39:51;;;;;;;37.70;9.25;;;;;;;1.68;100.00;99517.13;5069485;28;20045;-76
2021/12/01 03:42:16;;;;;;;26.55;8.52;;;;;;;1.65;100.00;99514.75;5069395;28;20047;-76
2021/12/01 03:44:42;;;;;;;34.33;9.27;;;;;;;1.69;100.00;99525.88;5086125;28;20024;-76
2021/12/01 03:47:07;;;;;;;28.08;8.98;;;;;;;1.75;100.00;99535.00;5070461;28;20430;-76
2021/12/01 03:49:32;;;;;;;21.25;8.95;;;;;;;1.76;100.00;99541.94;5052661;28;20127;-76
2021/12/01 03:51:58;;;;;;;25.83;8.20;;;;;;;1.81;100.00;99555.53;5069301;28;20039;-76
2021/12/01 03:54:25;;;;;;;31.50;9.45;;;;;;;1.86;100.00;99574.38;5069095;28;20040;-76
2021/12/01 03:56:50;;;;;;;28.92;8.50;;;;;;;1.92;100.00;99588.78;5069351;28;20044;-76
2021/12/01 03:59:16;;;;;;;26.20;9.60;;;;;;;1.89;100.00;99588.06;5068922;28;20370;-77
2021/12/01 04:01:41;;;;;;;21.30;9.73;;;;;;;1.92;100.00;99600.16;5069189;28;20040;-75
2021/12/01 04:04:07;;;;;;;28.47;8.97;;;;;;;1.90;100.00;99594.19;5068792;28;20039;-75
2021/12/01 04:06:33;;;;;;;17.48;7.15;;;;;;;1.96;100.00;99601.53;5070074;28;20028;-76
2021/12/01 04:08:58;;;;;;;19.92;6.40;;;;;;;2.00;100.00;99605.56;5069124;28;20078;-76
2021/12/01 04:11:24;;;;;;;15.38;6.80;;;;;;;2.04;100.00;99593.81;5070001;28;20044;-76
2021/12/01 04:13:51;;;;;;;18.77;5.65;;;;;;;2.05;100.00;99600.72;5052025;28;20135;-76
2021/12/01 04:16:16;;;;;;;15.05;6.25;;;;;;;2.06;100.00;99586.59;5069006;28;20481;-76
2021/12/01 04:18:43;;;;;;;15.90;6.82;;;;;;;2.10;100.00;99589.78;5068931;28;20033;-76
2021/12/01 04:21:08;;;;;;;25.73;7.47;;;;;;;2.04;100.00;99585.09;5085822;28;20040;-75
2021/12/01 04:23:34;;;;;;;13.45;5.65;;;;;;;2.09;100.00;99607.38;5068495;28;20051;-76
2021/12/01 04:26:01;;;;;;;13.70;6.30;;;;;;;2.12;100.00;99608.91;5068706;28;20042;-76
2021/12/01 04:28:27;;;;;;;15.50;5.57;;;;;;;2.10;100.00;99614.31;5052168;28;20079;-76
2021/12/01 04:30:53;;;;;;;11.73;5.25;;;;;;;2.13;100.00;99620.28;5069749;28;20439;-76
2021/12/01 04:33:18;;;;;;;11.55;5.25;;;;;;;2.14;100.00;99621.97;5068739;28;20028;-76
2021/12/01 04:35:45;;;;;;;13.50;4.78;;;;;;;2.22;100.00;99617.66;5069529;28;20051;-76
2021/12/01 04:38:10;;;;;;;12.05;5.65;;;;;;;2.21;100.00;99617.81;5068541;28;20082;-77
2021/12/01 04:40:36;;;;;;;9.27;5.23;;;;;;;2.29;100.00;99624.06;5068651;28;20442;-77
2021/12/01 04:43:02;;;;;;;14.40;5.22;;;;;;;2.37;100.00;99626.00;5069783;28;20368;-77
2021/12/01 04:45:31;;;;;;;8.93;4.15;;;;;;;2.40;100.00;99628.34;5085318;28;20028;-75
2021/12/01 04:47:57;;;;;;;12.15;4.72;;;;;;;2.37;100.00;99626.00;5068710;28;20462;-76
2021/12/01 04:50:24;;;;;;;;;;;;;;;2.49;100.00;99624.91;5069098;28;20127;-76
2021/12/01 04:52:51;;;;;;;12.18;5.15;;;;;;;2.49;100.00;99613.53;5051766;28;19955;-76
2021/12/01 04:55:17;;;;;;;12.25;5.30;;;;;;;2.50;100.00;99596.75;5068098;28;20277;-76
2021/12/01 04:57:44;;;;;;;10.27;5.00;;;;;;;2.51;100.00;99591.34;5068475;28;20124;-76
2021/12/01 05:00:13;;;;;;;10.18;4.70;;;;;;;2.58;100.00;99598.72;5069242;28;20283;-76
2021/12/01 05:02:39;;;;;;;10.65;4.32;;;;;;;2.62;100.00;99592.16;5069375;28;20067;-76
2021/12/01 05:05:05;;;;;;;9.10;4.50;;;;;;;2.63;100.00;99602.56;5068139;28;20343;-76
2021/12/01 05:07:31;;;;;;;10.25;5.05;;;;;;;2.64;100.00;99592.84;5069220;28;20059;-76
2021/12/01 05:09:57;;;;;;;11.35;4.40;;;;;;;2.59;100.00;99579.28;5051963;28;20068;-75
2021/12/01 05:12:23;;;;;;;7.32;3.75;;;;;;;2.73;100.00;99595.47;5069389;28;20059;-76
2021/12/01 05:14:48;;;;;;;13.32;5.05;;;;;;;2.75;100.00;99584.81;5051319;28;20051;-76
2021/12/01 05:17:14;;;;;;;8.73;3.75;;;;;;;2.70;100.00;99569.41;5068459;28;20070;-76
2021/12/01 05:19:40;;;;;;;7.70;4.50;;;;;;;2.79;100.00;99594.09;5069170;28;20103;-76
2021/12/01 05:22:06;;;;;;;9.90;4.57;;;;;;;2.79;100.00;99580.94;5068893;28;20450;-76
2021/12/01 05:24:32;;;;;;;8.48;3.40;;;;;;;2.78;100.00;99576.63;5051371;28;20049;-76
2021/12/01 05:26:58;;;;;;;6.95;3.20;;;;;;;2.88;100.00;99585.34;5068249;28;20350;-76
2021/12/01 05:29:24;;;;;;;7.90;3.28;;;;;;;2.91;100.00;99582.44;5068130;28;20086;-77
2021/12/01 05:31:53;;;;;;;9.32;3.25;;;;;;;2.95;100.00;99589.09;5069349;28;20037;-77
2021/12/01 05:34:18;;;;;;;6.93;3.40;;;;;;;2.95;100.00;99573.28;5068829;28;20639;-76
2021/12/01 05:36:44;;;;;;;7.78;2.83;;;;;;;2.91;100.00;99566.59;5068327;28;20043;-77
2021/12/01 05:39:09;;;;;;;5.87;3.17;;;;;;;3.02;100.00;99578.81;5069127;28;20453;-76
2021/12/01 05:41:35;;;;;;;6.82;2.70;;;;;;;3.05;100.00;99565.34;5068199;28;20037;-77
2021/12/01 05:44:01;;;;;;;6.20;2.27;;;;;;;3.06;100.00;99560.88;5069435;28;20028;-77
2021/12/01 05:46:27;;;;;;;5.30;2.40;;;;;;;3.04;100.00;99544.38;5071864;28;20477;-77
2021/12/01 05:48:56;;;;;;;4.57;2.30;;;;;;;3.03;100.00;99534.81;5088369;28;20094;-77
2021/12/01 05:51:22;;;;;;;2.78;1.67;;;;;;;3.02;100.00;99527.84;5072510;28;20123;-77
2021/12/01 05:53:49;;;;;;;5.43;1.65;;;;;;;3.05;100.00;99517.03;5071459;28;20136;-76
2021/12/01 05:56:15;;;;;;;5.00;1.77;;;;;;;3.01;100.00;99513.84;5071570;28;20043;-77
2021/12/01 05:58:41;;;;;;;4.07;2.05;;;;;;;3.06;100.00;99516.88;5088354;28;20036;-76
2021/12/01 06:01:06;;;;;;;2.17;1.35;;;;;;;3.04;100.00;99503.00;5071446;28;20473;-76
2021/12/01 06:03:32;;;;;;;5.45;1.65;;;;;;;3.05;100.00;99501.22;5071214;28;20982;-76
2021/12/01 06:05:58;;;;;;;3.13;1.33;;;;;;;3.09;100.00;99500.78;5072204;28;20032;-77
2021/12/01 06:08:24;;;;;;;3.40;1.33;;;;;;;3.09;100.00;99489.38;5072326;28;20090;-77
2021/12/01 06:10:49;;;;;;;1.97;1.20;;;;;;;3.08;100.00;99487.72;5071300;28;20139;-77
2021/12/01 06:13:17;;;;;;;1.85;1.40;;;;;;;3.11;100.00;99488.28;5071260;28;20349;-77
2021/12/01 06:15:44;;;;;;;3.65;1.15;;;;;;;3.16;100.00;99506.28;5071890;28;20033;-77
2021/12/01 06:18:13;;;;;;;2.55;1.50;;;;;;;3.09;100.00;99468.28;5054381;28;20036;-76
2021/12/01 06:20:39;;;;;;;2.05;1.30;;;;;;;3.23;100.00;99480.16;5070965;28;20072;-77
2021/12/01 06:23:05;;;;;;;1.73;1.35;;;;;;;3.18;100.00;99464.78;5071983;28;20056;-77
2021/12/01 06:25:31;;;;;;;2.92;1.70;;;;;;;3.16;100.00;99446.47;5070821;28;20075;-76
2021/12/01 06:27:56;;;;;;;3.85;1.70;;;;;;;3.21;100.00;99437.28;5070824;28;20105;-77
2021/12/01 06:30:24;;;;;;;2.63;1.88;;;;;;;3.25;100.00;99441.28;5070916;28;20056;-77
2021/12/01 06:32:50;;;;;;;2.78;1.92;;;;;;;3.30;100.00;99437.25;5087735;28;20036;-77
2021/12/01 06:35:16;;;;;;;2.78;1.85;;;;;;;3.38;100.00;99442.59;5071535;28;20060;-78
2021/12/01 06:37:43;;;;;;;2.55;1.63;;;;;;;3.40;100.00;99415.25;5070703;28;20072;-77
2021/12/01 06:40:10;;;;;;;2.75;1.98;;;;;;;3.44;100.00;99428.00;5071579;28;20079;-77
2021/12/01 06:42:36;;;;;;;4.80;2.65;;;;;;;3.49;100.00;99415.19;5053928;28;20114;-77
2021/12/01 06:45:04;;;;;;;3.42;2.33;;;;;;;3.51;100.00;99404.47;5071257;28;20055;-77
2021/12/01 06:47:29;;;;;;;3.30;2.40;;;;;;;3.61;100.00;99407.88;5070563;28;20145;-77
2021/12/01 06:49:55;;;;;;;3.67;2.20;;;;;;;3.72;100.00;99430.56;5053870;28;20454;-77
2021/12/01 06:52:20;;;;;;;4.57;2.90;;;;;;;3.77;100.00;99415.94;5070329;28;20036;-77
2021/12/01 06:54:46;;;;;;;4.53;2.53;;;;;;;3.83;100.00;99401.28;5070579;28;20283;-78
2021/12/01 06:57:11;;;;;;;3.80;2.47;;;;;;;3.82;100.00;99391.72;5069951;28;20151;-77
2021/12/01 06:59:37;;;;;;;5.30;3.42;;;;;;;3.98;100.00;99397.16;5053667;28;20126;-77
2021/12/01 07:02:02;;;;;;;4.27;3.03;;;;;;;3.99;100.00;99367.09;5070281;28;20446;-76
2021/12/01 07:04:30;;;;;;;5.07;3.42;;;;;;;3.94;100.00;99353.53;5071042;28;20033;-77
2021/12/01 07:06:56;;;;;;;4.90;3.53;;;;;;;4.06;100.00;99363.84;5070203;28;20028;-77
2021/12/01 07:09:24;;;;;;;6.63;4.35;;;;;;;4.12;100.00;99361.44;5071075;28;20024;-77
2021/12/01 07:11:49;;;;;;;6.30;4.13;;;;;;;4.14;100.00;99354.16;5070036;28;20056;-77
2021/12/01 07:14:15;;;;;;;6.75;4.45;;;;;;;4.22;100.00;99350.75;5069409;28;20043;-77
2021/12/01 07:16:41;;;;;;;8.70;5.32;;;;;;;4.31;100.00;99348.97;5070977;28;20174;-77
2021/12/01 07:19:06;;;;;;;7.75;4.72;;;;;;;4.33;100.00;99341.72;5070861;28;20033;-77
2021/12/01 07:21:32;;;;;;;7.97;5.22;;;;;;;4.41;100.00;99341.78;5070835;28;20131;-78
2021/12/01 07:23:58;;;;;;;10.40;5.82;;;;;;;4.50;100.00;99332.91;5070546;28;20039;-77
2021/12/01 07:26:24;;;;;;;7.88;4.80;;;;;;;4.50;100.00;99326.81;5070800;28;20035;-77
2021/12/01 07:28:49;;;;;;;9.17;5.47;;;;;;;4.58;100.00;99327.66;5069602;28;20036;-77
2021/12/01 07:31:15;;;;;;;8.93;5.77;;;;;;;4.69;100.00;99325.72;5070720;28;20605;-77
2021/12/01 07:33:40;;;;;;;11.03;6.33;;;;;;;4.70;100.00;99322.06;5069209;28;20040;-77
2021/12/01 07:36:05;;;;;;;9.40;5.90;;;;;;;4.78;100.00;99307.09;5086157;28;20464;-77
2021/12/01 07:38:31;;;;;;;10.50;5.85;;;;;;;4.81;100.00;99298.00;5088434;28;20031;-77
2021/12/01 07:40:56;;;;;;;10.90;6.30;;;;;;;4.92;100.00;99300.34;5089121;28;20131;-78
2021/12/01 07:43:22;;;;;;;12.07;6.63;;;;;;;4.98;100.00;99299.69;5088310;28;20051;-77
2021/12/01 07:45:48;;;;;;;12.80;6.90;;;;;;;5.02;100.00;99290.44;5091781;28;20084;-77
2021/12/01 07:48:14;;;;;;;13.68;6.93;;;;;;;5.11;100.00;99282.53;5090296;28;20109;-76
2021/12/01 07:50:41;;;;;;;14.52;8.35;;;;;;;5.22;100.00;99277.75;5106915;28;20031;-78
2021/12/01 07:53:06;;;;;;;14.35;7.90;;;;;;;5.25;100.00;99274.78;5107711;28;20073;-77
2021/12/01 07:55:32;;;;;;;13.70;7.78;;;;;;;5.34;100.00;99272.13;5089307;28;20525;-77
2021/12/01 07:57:58;;;;;;;16.38;8.95;;;;;;;5.36;100.00;99260.41;5103901;28;20032;-76
2021/12/01 08:00:23;;;;;;;17.95;9.73;;;;;;;5.49;100.00;99271.28;5091903;28;20056;-77
2021/12/01 08:02:49;;;;;;;16.67;8.77;;;;;;;5.58;100.00;99269.47;5102995;28;20081;-76
2021/12/01 08:05:15;;;;;;;17.47;9.07;;;;;;;5.72;100.00;99260.03;5074994;28;20931;-77
2021/12/01 08:07:40;;;;;;;20.48;9.88;;;;;;;5.76;100.00;99249.91;5069234;28;20048;-76
2021/12/01 08:10:08;;;;;;;15.50;8.48;;;;;;;5.90;100.00;99236.84;5089500;28;20530;-77
2021/12/01 08:12:34;;;;;;;17.38;9.48;;;;;;;5.93;100.00;99225.06;5088450;28;20028;-77
2021/12/01 08:15:01;;;;;;;;;;;;;;;6.09;100.00;99232.19;5090098;28;20067;-77
2021/12/01 08:17:26;;;;;;;15.77;8.48;;;;;;;6.09;100.00;99214.47;5090021;28;20325;-77
2021/12/01 08:19:52;;;;;;;18.23;10.30;;;;;;;6.18;100.00;99214.41;5094077;28;20063;-77
2021/12/01 08:22:17;;;;;;;15.17;9.30;;;;;;;6.20;100.00;99189.41;5070747;28;20035;-77
2021/12/01 08:24:43;;;;;;;17.05;9.45;;;;;;;6.31;100.00;99199.63;5090342;28;20604;-77
2021/12/01 08:27:08;;;;;;;12.77;7.57;;;;;;;6.40;100.00;99183.69;5087004;28;20031;-77
2021/12/01 08:29:34;;;;;;;12.80;7.77;;;;;;;6.51;100.00;99183.31;5094950;28;20363;-77
2021/12/01 08:31:59;;;;;;;11.32;6.00;;;;;;;6.59;100.00;99171.81;5089657;28;20028;-76
2021/12/01 08:34:25;;;;;;;9.70;5.20;;;;;;;6.64;100.00;99154.38;5088504;28;20035;-78
2021/12/01 08:36:51;;;;;;;9.80;5.97;;;;;;;6.75;100.00;99151.31;5089708;28;20036;-78
2021/12/01 08:39:18;;;;;;;5.28;3.60;;;;;;;6.86;100.00;99141.28;5089860;28;20886;-78
2021/12/01 08:41:43;;;;;;;6.30;3.70;;;;;;;6.87;100.00;99109.28;5071911;28;20111;-77
2021/12/01 08:44:10;;;;;;;4.72;3.17;;;;;;;6.85;100.00;99074.13;5089653;28;20583;-78
2021/12/01 08:46:35;;;;;;;;;;;;;;;6.96;100.00;99072.91;5090233;28;20114;-77
2021/12/01 08:49:01;;;;;;;8.05;3.33;;;;;;;6.97;100.00;99038.19;5088683;28;20007;-77
2021/12/01 08:51:27;;;;;;;6.15;3.75;;;;;;;6.97;100.00;99016.16;5089533;28;20813;-77
2021/12/01 08:53:53;;;;;;;4.10;2.80;;;;;;;6.93;100.00;98973.25;5089395;28;20057;-77
2021/12/01 08:56:18;;;;;;;4.97;2.97;;;;;;;7.06;100.00;98945.25;5088766;28;20692;-77
2021/12/01 08:58:44;;;;;;;4.27;3.20;;;;;;;7.01;100.00;98900.69;5088443;28;20040;-77
2021/12/01 09:01:09;;;;;;;3.60;2.78;;;;;;;6.97;100.00;98844.50;5089771;28;20615;-77
2021/12/01 09:03:36;;;;;;;6.53;3.27;;;;;;;6.98;100.00;98822.31;5088599;28;20089;-77
2021/12/01 09:06:02;;;;;;;4.32;2.65;;;;;;;7.06;100.00;98788.69;5088840;28;20044;-78
2021/12/01 09:08:28;;;;;;;4.72;3.30;;;;;;;7.00;100.00;98729.25;5088725;28;20039;-77
2021/12/01 09:10:59;;;;;;;4.95;2.85;;;;;;;7.02;100.00;98716.59;5088544;28;20046;-77
2021/12/01 09:13:28;;;;;;;3.72;3.00;;;;;;;6.96;100.00;98680.22;5088599;28;20417;-77
2021/12/01 09:15:55;;;;;;;4.20;3.17;;;;;;;7.04;100.00;98656.22;5088183;28;20032;-77
2021/12/01 09:18:21;;;;;;;4.78;3.50;;;;;;;7.02;100.00;98626.41;5089758;28;20066;-77
2021/12/01 09:20:47;;;;;;;;;;;;;;;7.02;100.00;98604.34;5093316;28;20040;-76
2021/12/01 09:23:13;;;;;;;5.03;3.58;;;;;;;7.00;100.00;98564.78;5090987;28;19916;-77
2021/12/01 09:25:39;;;;;;;6.00;3.95;;;;;;;7.02;100.00;98540.69;5091959;28;20111;-76
2021/12/01 09:28:04;;;;;;;16.08;5.30;;;;;;;6.94;100.00;98520.44;5093195;28;20123;-76
2021/12/01 09:30:30;;;;;;;6.50;4.38;;;;;;;6.96;100.00;98513.09;5093126;28;20122;-77
2021/12/01 09:32:57;;;;;;;5.45;4.05;;;;;;;6.88;100.00;98476.09;5093113;28;20040;-77
2021/12/01 09:35:22;;;;;;;6.23;4.80;;;;;;;6.92;100.00;98482.66;5091740;28;20046;-77
2021/12/01 09:37:48;;;;;;;5.68;4.38;;;;;;;6.96;100.00;98463.50;5093097;28;20606;-77
2021/12/01 09:40:17;;;;;;;5.80;4.93;;;;;;;6.96;100.00;98442.28;5092928;28;20123;-77
2021/12/01 09:42:45;;;;;;;6.22;5.15;;;;;;;6.92;100.00;98429.59;5075166;28;20046;-77
2021/12/01 09:45:13;;;;;;;8.15;5.45;;;;;;;6.97;100.00;98416.56;5091794;28;20040;-78
2021/12/01 09:47:39;;;;;;;7.65;5.47;;;;;;;6.90;100.00;98397.16;5091951;28;20036;-78
2021/12/01 09:50:06;;;;;;;6.38;5.05;;;;;;;6.89;100.00;98387.56;5091996;28;20031;-78
2021/12/01 09:52:32;;;;;;;7.85;4.75;;;;;;;6.88;100.00;98380.59;5074937;28;20059;-78
2021/12/01 09:54:58;;;;;;;;;;;;;;;6.84;100.00;98361.63;5075274;28;20048;-77
2021/12/01 09:57:24;;;;;;;6.60;4.60;;;;;;;6.83;100.00;98377.72;5091948;28;20249;-78
2021/12/01 09:59:50;;;;;;;6.43;5.23;;;;;;;6.85;100.00;98378.34;5091647;28;20119;-77
2021/12/01 10:02:17;;;;;;;7.30;5.28;;;;;;;6.82;100.00;98368.16;5092399;28;20457;-78
2021/12/01 10:04:43;;;;;;;6.10;4.57;;;;;;;6.79;100.00;98355.25;5091350;28;20032;-77
2021/12/01 10:07:33;;;;;;;5.65;4.32;;;;;;;6.80;100.00;98356.91;5092482;28;20066;-77
2021/12/01 10:10:08;;;;;;;7.57;4.90;;;;;;;6.78;100.00;98343.84;5091398;28;20089;-77
2021/12/01 10:12:49;;;;;;;4.78;3.85;;;;;;;6.76;100.00;98346.69;5092382;28;20040;-77
2021/12/01 10:15:27;;;;;;;6.35;4.47;;;;;;;6.78;100.00;98346.50;5090980;28;20040;-77
2021/12/01 10:18:16;;;;;;;5.50;4.07;;;;;;;6.71;100.00;98327.09;5090787;28;20399;-77
2021/12/01 10:20:43;;;;;;;5.20;4.28;;;;;;;6.75;100.00;98299.16;5092211;28;20403;-77
2021/12/01 10:23:15;;;;;;;5.75;3.78;;;;;;;6.73;100.00;98294.03;5074517;28;20039;-78
2021/12/01 10:25:42;;;;;;;5.18;3.60;;;;;;;6.72;100.00;98276.50;5074218;28;20046;-78
2021/12/01 10:28:13;;;;;;;4.85;4.13;;;;;;;6.73;100.00;98254.28;5091206;28;20047;-77
2021/12/01 10:30:44;;;;;;;4.22;3.55;;;;;;;6.78;100.00;98258.97;5090890;28;20115;-78
2021/12/01 10:33:17;;;;;;;6.95;5.32;;;;;;;6.73;100.00;98251.63;5090982;28;20046;-78
2021/12/01 10:35:43;;;;;;;4.95;4.05;;;;;;;6.81;100.00;98247.16;5090623;28;20047;-77
2021/12/01 10:38:10;;;;;;;5.05;4.25;;;;;;;6.82;100.00;98222.28;5091851;28;20023;-76
2021/12/01 10:40:37;;;;;;;4.43;3.58;;;;;;;6.78;100.00;98199.81;5091026;28;20062;-77
2021/12/01 10:43:06;;;;;;;9.73;4.10;;;;;;;6.84;100.00;98204.34;5090810;28;20058;-76
2021/12/01 10:45:36;;;;;;;7.75;4.43;;;;;;;6.78;100.00;98189.22;5090474;28;20032;-77
2021/12/01 10:48:04;;;;;;;5.25;3.60;;;;;;;6.83;100.00;98176.97;5073504;28;20476;-76
2021/12/01 10:50:32;;;;;;;4.80;3.88;;;;;;;6.79;100.00;98143.94;5082059;28;20478;-76
2021/12/01 10:53:05;;;;;;;4.97;3.42;;;;;;;6.90;100.00;98153.13;5078923;28;20039;-76
2021/12/01 10:55:32;;;;;;;4.07;3.65;;;;;;;6.82;100.00;98110.91;5070718;28;20037;-76
2021/12/01 10:58:07;;;;;;;3.90;3.20;;;;;;;6.80;100.00;98094.38;5072943;28;20035;-76
2021/12/01 11:00:44;;;;;;;5.47;4.00;;;;;;;6.84;100.00;98077.03;5090578;28;20047;-77
2021/12/01 11:03:21;;;;;;;7.70;4.78;;;;;;;6.87;100.00;98063.38;5090372;28;20325;-76
2021/12/01 11:05:50;;;;;;;3.50;3.17;;;;;;;6.88;100.00;98051.72;5090317;28;20043;-76
2021/12/01 11:08:24;;;;;;;4.20;3.38;;;;;;;6.91;100.00;98032.78;5090252;28;20074;-77
2021/12/01 11:11:15;;;;;;;4.55;3.53;;;;;;;6.90;100.00;98013.34;5071288;28;20044;-77
2021/12/01 11:13:43;;;;;;;3.78;2.97;;;;;;;6.89;100.00;97989.72;5048046;28;20052;-78
2021/12/01 11:16:11;;;;;;;5.03;3.38;;;;;;;6.86;100.00;97974.19;5071028;28;20450;-78
2021/12/01 11:18:40;;;;;;;5.18;3.35;;;;;;;6.82;100.00;97959.75;5070075;28;20036;-77
2021/12/01 11:21:21;;;;;;;4.00;3.58;;;;;;;6.85;100.00;97962.78;5053399;28;20611;-76
2021/12/01 11:23:50;;;;;;;4.07;3.47;;;;;;;6.88;100.00;97961.53;5052897;28;20587;-78
2021/12/01 11:26:23;;;;;;;4.68;3.33;;;;;;;6.87;100.00;97936.06;5075561;28;20027;-77
2021/12/01 11:28:52;;;;;;;4.25;3.15;;;;;;;6.89;100.00;97932.19;5089931;28;20028;-76
2021/12/01 11:31:19;;;;;;;5.15;3.10;;;;;;;6.90;100.00;97917.88;5089591;28;20035;-77
2021/12/01 11:33:46;;;;;;;2.95;2.65;;;;;;;6.86;100.00;97902.59;5072818;28;20063;-77
2021/12/01 11:36:15;;;;;;;5.05;3.72;;;;;;;6.83;100.00;97884.44;5090789;28;20158;-77
2021/12/01 11:38:42;;;;;;;6.32;2.85;;;;;;;6.82;100.00;97893.44;5089651;28;20039;-77